createdAt,value
2023-04-16T00:00:38.769Z,97614.19
2023-04-16T00:03:43.090Z,97605.44
2023-04-16T00:06:46.988Z,97598.09
2023-04-16T00:10:05.010Z,97609.19
2023-04-16T00:13:09.188Z,97603.44
2023-04-16T00:16:13.318Z,97609.44
2023-04-16T00:19:18.419Z,97604.84
2023-04-16T00:22:22.427Z,97602.44
2023-04-16T00:25:26.374Z,97622.22
2023-04-16T00:28:30.614Z,97611.91
2023-04-16T00:31:34.849Z,97621.50
2023-04-16T00:34:39.029Z,97616.41
2023-04-16T00:37:42.718Z,97616.88
2023-04-16T00:40:46.668Z,97619.81
2023-04-16T00:43:50.828Z,97619.78
2023-04-16T00:46:55.892Z,97614.13
2023-04-16T00:49:59.942Z,97618.69
2023-04-16T00:53:05.886Z,97620.34
2023-04-16T00:56:09.911Z,97622.41
2023-04-16T00:59:13.792Z,97617.94
2023-04-16T01:02:17.828Z,97620.50
2023-04-16T01:05:25.918Z,97612.16
2023-04-16T01:08:30.034Z,97615.38
2023-04-16T01:11:33.419Z,97605.09
2023-04-16T01:14:37.138Z,97603.13
2023-04-16T01:17:41.285Z,97603.13
2023-04-16T01:20:45.444Z,97603.78
2023-04-16T01:23:51.150Z,97610.06
2023-04-16T01:26:55.294Z,97613.88
2023-04-16T01:29:59.195Z,97624.69
2023-04-16T01:33:03.538Z,97613.16
2023-04-16T01:36:07.615Z,97622.56
2023-04-16T01:39:11.614Z,97624.16
2023-04-16T01:42:16.688Z,97620.66
2023-04-16T01:45:22.268Z,97627.59
2023-04-16T01:48:26.622Z,97619.38
2023-04-16T01:51:32.121Z,97629.19
2023-04-16T01:54:36.079Z,97634.44
2023-04-16T01:57:40.325Z,97637.63
2023-04-16T02:00:44.421Z,97634.41
2023-04-16T02:03:49.110Z,97632.28
2023-04-16T02:06:53.407Z,97641.16
2023-04-16T02:09:57.222Z,97637.22
2023-04-16T02:13:01.211Z,97640.47
2023-04-16T02:16:05.948Z,97634.25
2023-04-16T02:19:10.198Z,97637.84
2023-04-16T02:22:14.984Z,97622.13
2023-04-16T02:25:20.569Z,97639.00
2023-04-16T02:28:26.326Z,97643.50
2023-04-16T02:31:34.535Z,97639.94
2023-04-16T02:34:38.640Z,97640.28
2023-04-16T02:37:42.572Z,97639.91
2023-04-16T02:40:46.705Z,97644.56
2023-04-16T02:43:50.871Z,97637.56
2023-04-16T02:46:54.812Z,97637.00
2023-04-16T02:49:58.578Z,97631.16
2023-04-16T02:53:02.623Z,97636.56
2023-04-16T02:56:06.996Z,97628.16
2023-04-16T02:59:11.411Z,97627.94
2023-04-16T03:02:15.363Z,97627.50
2023-04-16T03:05:19.207Z,97634.22
2023-04-16T03:08:23.421Z,97635.25
2023-04-16T03:11:30.353Z,97641.47
2023-04-16T03:14:34.639Z,97638.59
2023-04-16T03:17:43.351Z,97637.25
2023-04-16T03:20:47.924Z,97637.09
2023-04-16T03:23:51.735Z,97631.47
2023-04-16T03:26:55.476Z,97640.84
2023-04-16T03:30:00.810Z,97626.06
2023-04-16T03:33:07.085Z,97630.81
2023-04-16T03:36:11.015Z,97627.75
2023-04-16T03:39:15.313Z,97629.50
2023-04-16T03:42:19.005Z,97619.13
2023-04-16T03:45:23.016Z,97626.03
2023-04-16T03:48:27.205Z,97629.78
2023-04-16T03:51:31.109Z,97639.16
2023-04-16T03:54:35.224Z,97638.00
2023-04-16T03:57:41.747Z,97637.38
2023-04-16T04:00:46.895Z,97635.91
2023-04-16T04:03:53.181Z,97627.84
2023-04-16T04:06:59.739Z,97629.97
2023-04-16T04:10:03.778Z,97631.00
2023-04-16T04:13:07.911Z,97629.50
2023-04-16T04:16:11.823Z,97638.81
2023-04-16T04:19:15.503Z,97637.94
2023-04-16T04:22:19.326Z,97645.22
2023-04-16T04:25:23.489Z,97643.66
2023-04-16T04:28:28.725Z,97649.91
2023-04-16T04:31:32.913Z,97653.09
2023-04-16T04:34:36.569Z,97648.28
2023-04-16T04:37:40.728Z,97654.66
2023-04-16T04:40:45.108Z,97649.03
2023-04-16T04:43:48.834Z,97642.31
2023-04-16T04:46:52.763Z,97645.25
2023-04-16T04:49:56.644Z,97644.56
2023-04-16T04:53:01.944Z,97653.13
2023-04-16T04:56:12.199Z,97653.63
2023-04-16T04:59:17.393Z,97660.91
2023-04-16T05:02:21.845Z,97658.88
2023-04-16T05:05:49.177Z,97654.75
2023-04-16T05:08:53.156Z,97656.50
2023-04-16T05:11:56.921Z,97660.72
2023-04-16T05:15:00.807Z,97652.84
2023-04-16T05:18:05.064Z,97655.03
2023-04-16T05:21:12.356Z,97661.19
2023-04-16T05:24:16.772Z,97659.19
2023-04-16T05:27:20.898Z,97661.75
2023-04-16T05:30:25.210Z,97661.25
2023-04-16T05:33:29.103Z,97662.81
2023-04-16T05:36:43.484Z,97662.16
2023-04-16T05:39:47.477Z,97662.59
2023-04-16T05:42:51.420Z,97654.41
2023-04-16T05:45:55.439Z,97659.88
2023-04-16T05:48:59.474Z,97656.09
2023-04-16T05:52:03.476Z,97657.69
2023-04-16T05:55:08.715Z,97655.78
2023-04-16T05:58:12.816Z,97659.56
2023-04-16T06:01:21.276Z,97659.81
2023-04-16T06:04:25.453Z,97669.59
2023-04-16T06:07:33.919Z,97665.75
2023-04-16T06:10:38.258Z,97669.69
2023-04-16T06:13:42.445Z,97666.59
2023-04-16T06:16:46.094Z,97674.28
2023-04-16T06:19:50.234Z,97680.56
2023-04-16T06:22:55.640Z,97674.19
2023-04-16T06:25:59.969Z,97672.00
2023-04-16T06:29:04.087Z,97672.28
2023-04-16T06:32:08.535Z,97669.69
2023-04-16T06:35:13.279Z,97668.56
2023-04-16T06:38:18.660Z,97668.91
2023-04-16T06:41:23.765Z,97676.25
2023-04-16T06:44:27.759Z,97676.50
2023-04-16T06:47:40.902Z,97675.44
2023-04-16T06:50:47.322Z,97675.78
2023-04-16T06:53:51.255Z,97671.28
2023-04-16T06:56:55.551Z,97672.97
2023-04-16T07:00:00.523Z,97673.47
2023-04-16T07:03:08.799Z,97673.59
2023-04-16T07:06:12.622Z,97678.72
2023-04-16T07:09:18.736Z,97679.81
2023-04-16T07:12:23.042Z,97680.63
2023-04-16T07:15:27.568Z,97683.28
2023-04-16T07:18:31.417Z,97691.50
2023-04-16T07:21:35.647Z,97693.50
2023-04-16T07:24:39.428Z,97696.91
2023-04-16T07:27:47.958Z,97700.91
2023-04-16T07:30:52.028Z,97689.94
2023-04-16T07:33:56.567Z,97692.31
2023-04-16T07:37:00.666Z,97695.84
2023-04-16T07:40:05.798Z,97691.22
2023-04-16T07:43:09.968Z,97699.41
2023-04-16T07:46:15.656Z,97709.56
2023-04-16T07:49:19.792Z,97709.94
2023-04-16T07:52:23.466Z,97709.31
2023-04-16T07:55:27.365Z,97707.31
2023-04-16T07:58:32.294Z,97711.81
2023-04-16T08:01:36.269Z,97716.03
2023-04-16T08:04:51.063Z,97706.22
2023-04-16T08:07:55.270Z,97716.28
2023-04-16T08:10:59.250Z,97711.78
2023-04-16T08:14:03.168Z,97719.22
2023-04-16T08:17:07.235Z,97720.75
2023-04-16T08:20:15.043Z,97721.00
2023-04-16T08:23:20.956Z,97724.47
2023-04-16T08:26:25.832Z,97728.47
2023-04-16T08:29:30.109Z,97731.06
2023-04-16T08:32:34.736Z,97734.78
2023-04-16T08:35:39.737Z,97743.09
2023-04-16T08:38:43.886Z,97729.25
2023-04-16T08:41:47.856Z,97728.28
2023-04-16T08:44:51.917Z,97733.44
2023-04-16T08:47:57.432Z,97729.41
2023-04-16T08:51:03.798Z,97731.25
2023-04-16T08:54:08.219Z,97729.97
2023-04-16T08:57:12.039Z,97743.34
2023-04-16T09:00:15.597Z,97751.78
2023-04-16T09:03:20.038Z,97749.50
2023-04-16T09:06:26.519Z,97754.31
2023-04-16T09:09:31.575Z,97754.97
2023-04-16T09:12:36.599Z,97765.53
2023-04-16T09:15:40.854Z,97763.88
2023-04-16T09:18:46.725Z,97766.88
2023-04-16T09:21:50.668Z,97759.22
2023-04-16T09:24:56.015Z,97765.75
2023-04-16T09:28:01.577Z,97771.50
2023-04-16T09:31:05.915Z,97763.91
2023-04-16T09:34:09.522Z,97769.28
2023-04-16T09:37:13.355Z,97767.81
2023-04-16T09:40:18.294Z,97764.72
2023-04-16T09:43:22.501Z,97759.47
2023-04-16T09:46:26.717Z,97768.78
2023-04-16T09:49:31.169Z,97768.66
2023-04-16T09:52:37.037Z,97770.38
2023-04-16T09:55:40.782Z,97766.56
2023-04-16T09:58:47.592Z,97770.59
2023-04-16T10:01:53.441Z,97775.28
2023-04-16T10:05:20.519Z,97774.16
2023-04-16T10:08:24.726Z,97781.84
2023-04-16T10:11:30.724Z,97780.81
2023-04-16T10:14:34.774Z,97780.06
2023-04-16T10:17:38.579Z,97780.91
2023-04-16T10:20:47.198Z,97776.84
2023-04-16T10:23:51.312Z,97779.97
2023-04-16T10:26:56.531Z,97779.78
2023-04-16T10:30:00.873Z,97778.06
2023-04-16T10:33:05.153Z,97777.72
2023-04-16T10:36:09.442Z,97779.88
2023-04-16T10:39:16.270Z,97774.63
2023-04-16T10:42:20.890Z,97789.00
2023-04-16T10:45:25.977Z,97780.50
2023-04-16T10:48:38.568Z,97793.22
2023-04-16T10:51:50.964Z,97790.28
2023-04-16T10:54:54.958Z,97787.19
2023-04-16T10:58:03.184Z,97790.84
2023-04-16T11:01:07.352Z,97789.16
2023-04-16T11:04:11.472Z,97781.59
2023-04-16T11:07:15.849Z,97781.84
2023-04-16T11:10:24.205Z,97781.13
2023-04-16T11:13:29.539Z,97789.19
2023-04-16T11:16:34.046Z,97790.72
2023-04-16T11:19:38.415Z,97785.75
2023-04-16T11:22:44.654Z,97782.41
2023-04-16T11:25:51.506Z,97783.56
2023-04-16T11:28:55.651Z,97786.38
2023-04-16T11:31:59.843Z,97786.53
2023-04-16T11:38:26.484Z,97784.59
2023-04-16T11:41:33.589Z,97783.47
2023-04-16T11:44:41.391Z,97783.00
2023-04-16T11:47:52.374Z,97781.41
2023-04-16T11:51:20.484Z,97776.53
2023-04-16T11:54:27.119Z,97778.41
2023-04-16T11:57:31.290Z,97780.13
2023-04-16T12:00:36.113Z,97777.59
2023-04-16T12:03:41.537Z,97780.41
2023-04-16T12:06:50.793Z,97769.44
2023-04-16T12:09:57.656Z,97786.66
2023-04-16T12:13:03.229Z,97779.34
2023-04-16T12:16:07.455Z,97775.44
2023-04-16T12:19:11.455Z,97777.69
2023-04-16T12:22:15.734Z,97781.84
2023-04-16T12:25:19.844Z,97778.00
2023-04-16T12:28:23.792Z,97784.72
2023-04-16T12:31:31.918Z,97784.78
2023-04-16T12:38:01.117Z,97770.56
2023-04-16T12:41:05.010Z,97781.00
2023-04-16T12:44:10.149Z,97783.13
2023-04-16T12:47:14.516Z,97782.13
2023-04-16T12:50:18.434Z,97784.13
2023-04-16T12:53:22.728Z,97780.06
2023-04-16T12:56:26.596Z,97769.81
2023-04-16T12:59:30.539Z,97770.66
2023-04-16T13:02:44.622Z,97770.13
2023-04-16T13:05:52.996Z,97766.44
2023-04-16T13:08:57.188Z,97765.09
2023-04-16T13:12:00.946Z,97761.69
2023-04-16T13:15:05.145Z,97761.41
2023-04-16T13:18:16.071Z,97763.78
2023-04-16T13:21:20.323Z,97758.34
2023-04-16T13:24:24.322Z,97758.34
2023-04-16T13:27:28.548Z,97766.31
2023-04-16T13:30:32.534Z,97763.28
2023-04-16T13:33:37.806Z,97767.25
2023-04-16T13:36:42.838Z,97758.56
2023-04-16T13:39:46.986Z,97754.03
2023-04-16T13:42:50.742Z,97755.34
2023-04-16T13:45:54.536Z,97758.28
2023-04-16T13:48:58.293Z,97757.50
2023-04-16T13:52:02.750Z,97744.97
2023-04-16T13:55:06.442Z,97755.88
2023-04-16T13:58:10.562Z,97746.81
2023-04-16T14:01:14.746Z,97753.16
2023-04-16T14:04:18.912Z,97750.34
2023-04-16T14:07:23.635Z,97749.69
2023-04-16T14:10:27.904Z,97746.91
2023-04-16T14:13:36.959Z,97737.91
2023-04-16T14:16:41.671Z,97743.72
2023-04-16T14:19:47.098Z,97741.06
2023-04-16T14:22:51.438Z,97742.75
2023-04-16T14:25:55.513Z,97747.13
2023-04-16T14:28:59.426Z,97748.28
2023-04-16T14:32:03.734Z,97747.47
2023-04-16T14:35:07.848Z,97746.38
2023-04-16T14:38:11.989Z,97743.88
2023-04-16T14:41:16.500Z,97745.31
2023-04-16T14:44:21.750Z,97746.47
2023-04-16T14:47:26.447Z,97748.41
2023-04-16T14:50:30.747Z,97746.44
2023-04-16T14:53:38.551Z,97745.69
2023-04-16T14:56:42.602Z,97735.19
2023-04-16T14:59:47.788Z,97744.47
2023-04-16T15:02:52.283Z,97743.56
2023-04-16T15:05:57.066Z,97738.31
2023-04-16T15:09:01.239Z,97740.97
2023-04-16T15:12:08.094Z,97736.47
2023-04-16T15:15:12.019Z,97737.59
2023-04-16T15:18:19.823Z,97739.34
2023-04-16T15:21:28.656Z,97737.56
2023-04-16T15:24:36.514Z,97742.47
2023-04-16T15:27:44.900Z,97746.28
2023-04-16T15:30:52.370Z,97742.28
2023-04-16T15:34:01.634Z,97739.84
2023-04-16T15:37:12.808Z,97742.38
2023-04-16T15:40:27.716Z,97741.16
2023-04-16T15:43:43.920Z,97750.66
2023-04-16T15:50:08.573Z,97741.03
2023-04-16T15:53:12.656Z,97745.00
2023-04-16T15:56:20.315Z,97744.34
2023-04-16T15:59:33.707Z,97744.75
2023-04-16T16:02:38.253Z,97743.00
2023-04-16T16:05:43.215Z,97755.44
2023-04-16T16:22:53.496Z,97760.63
2023-04-16T16:26:22.242Z,97763.13
2023-04-16T16:32:58.713Z,97760.13
2023-04-16T16:43:18.432Z,97774.91
2023-04-16T16:54:20.585Z,97780.56
2023-04-16T16:57:58.991Z,97790.72
2023-04-16T17:01:37.289Z,97785.16
2023-04-16T17:04:29.445Z,97787.56
2023-04-16T17:14:38.378Z,97790.06
2023-04-16T17:21:35.173Z,97794.41
2023-04-16T17:24:40.504Z,97806.56
2023-04-16T17:27:44.507Z,97797.63
2023-04-16T17:30:48.286Z,97805.94
2023-04-16T17:33:53.667Z,97803.53
2023-04-16T17:37:04.473Z,97799.81
2023-04-16T17:40:10.101Z,97802.28
2023-04-16T17:43:17.473Z,97810.09
2023-04-16T17:46:23.339Z,97808.75
2023-04-16T17:49:27.537Z,97802.97
2023-04-16T17:52:31.820Z,97806.44
2023-04-16T17:55:35.867Z,97806.44
2023-04-16T17:58:39.836Z,97801.03
2023-04-16T18:01:47.297Z,97809.06
2023-04-16T18:04:51.250Z,97810.00
2023-04-16T18:07:56.913Z,97809.63
2023-04-16T18:11:01.251Z,97810.53
2023-04-16T18:14:07.231Z,97811.38
2023-04-16T18:17:24.926Z,97797.81
2023-04-16T18:20:37.396Z,97799.00
2023-04-16T18:23:46.157Z,97791.69
2023-04-16T18:26:53.595Z,97804.66
2023-04-16T18:30:00.684Z,97803.31
2023-04-16T18:36:12.079Z,97811.69
2023-04-16T18:39:19.036Z,97809.84
2023-04-16T18:42:23.607Z,97811.97
2023-04-16T18:45:28.372Z,97807.38
2023-04-16T18:48:33.728Z,97811.00
2023-04-16T18:51:39.786Z,97810.44
2023-04-16T18:54:45.029Z,97808.88
2023-04-16T18:57:49.491Z,97818.84
2023-04-16T19:00:55.060Z,97824.44
2023-04-16T19:04:09.961Z,97828.72
2023-04-16T19:07:14.316Z,97817.59
2023-04-16T19:10:25.167Z,97822.31
2023-04-16T19:13:29.223Z,97826.53
2023-04-16T19:16:39.509Z,97826.00
2023-04-16T19:19:44.774Z,97835.22
2023-04-16T19:22:49.136Z,97831.63
2023-04-16T19:25:54.997Z,97834.69
2023-04-16T19:29:05.750Z,97829.84
2023-04-16T19:32:12.242Z,97828.09
2023-04-16T19:35:17.471Z,97839.22
2023-04-16T19:38:21.816Z,97836.03
2023-04-16T19:41:25.881Z,97838.66
2023-04-16T19:44:31.370Z,97840.16
2023-04-16T19:47:35.574Z,97841.00
2023-04-16T19:50:39.817Z,97837.59
2023-04-16T19:53:45.140Z,97840.91
2023-04-16T19:56:50.716Z,97844.38
2023-04-16T19:59:55.354Z,97839.31
2023-04-16T20:03:00.572Z,97838.69
2023-04-16T20:06:05.772Z,97843.91
2023-04-16T20:09:12.093Z,97831.63
2023-04-16T20:12:16.579Z,97827.72
2023-04-16T20:15:20.787Z,97826.81
2023-04-16T20:18:28.117Z,97825.16
2023-04-16T20:21:32.632Z,97821.25
2023-04-16T20:24:36.376Z,97816.63
2023-04-16T20:27:42.337Z,97810.34
2023-04-16T20:30:48.868Z,97810.53
2023-04-16T20:33:52.999Z,97812.97
2023-04-16T20:36:58.219Z,97820.94
2023-04-16T20:40:02.830Z,97816.44
2023-04-16T20:43:08.205Z,97804.78
2023-04-16T20:46:12.284Z,97803.16
2023-04-16T20:49:23.380Z,97804.97
2023-04-16T20:52:28.413Z,97807.59
2023-04-16T20:55:34.765Z,97806.59
2023-04-16T20:58:38.821Z,97802.28
2023-04-16T21:01:43.707Z,97790.38
2023-04-16T21:04:48.066Z,97788.66
2023-04-16T21:07:56.553Z,97785.28
2023-04-16T21:11:01.827Z,97780.84
2023-04-16T21:14:06.043Z,97784.72
2023-04-16T21:17:10.007Z,97782.94
2023-04-16T21:20:14.083Z,97768.06
2023-04-16T21:23:18.069Z,97769.81
2023-04-16T21:26:23.913Z,97776.28
2023-04-16T21:29:28.191Z,97767.63
2023-04-16T21:32:31.943Z,97765.16
2023-04-16T21:35:35.984Z,97766.59
2023-04-16T21:38:40.487Z,97771.59
2023-04-16T21:41:44.469Z,97774.34
2023-04-16T21:44:49.686Z,97771.50
2023-04-16T21:47:53.939Z,97773.09
2023-04-16T21:51:06.415Z,97774.00
2023-04-16T21:54:14.654Z,97776.69
2023-04-16T21:57:19.372Z,97776.41
2023-04-16T22:00:23.535Z,97774.06
2023-04-16T22:03:35.017Z,97766.81
2023-04-16T22:06:43.065Z,97767.84
2023-04-16T22:10:37.526Z,97762.28
2023-04-16T22:14:19.009Z,97762.47
2023-04-16T22:16:54.977Z,97758.66
2023-04-16T22:20:01.414Z,97744.09
2023-04-16T22:23:28.260Z,97733.94
2023-04-16T22:26:34.830Z,97737.94
2023-04-16T22:29:40.429Z,97734.75
2023-04-16T22:33:07.118Z,97726.28
2023-04-16T22:36:39.821Z,97724.22
2023-04-16T22:42:59.410Z,97716.34
2023-04-16T22:46:13.124Z,97714.56
2023-04-16T22:49:37.239Z,97710.63
2023-04-16T22:56:06.011Z,97708.56
2023-04-16T22:59:21.982Z,97713.50
2023-04-16T23:02:36.033Z,97709.91
2023-04-16T23:09:15.522Z,97708.81
2023-04-16T23:12:21.259Z,97711.59
2023-04-16T23:15:29.613Z,97707.59
2023-04-16T23:18:33.757Z,97698.34
2023-04-16T23:21:42.142Z,97699.06
2023-04-16T23:24:46.353Z,97695.22
2023-04-16T23:27:51.474Z,97683.72
2023-04-16T23:31:47.740Z,97681.63
2023-04-16T23:38:02.100Z,97697.31
2023-04-16T23:41:12.381Z,97683.59
2023-04-16T23:44:17.651Z,97673.88
2023-04-16T23:48:21.700Z,97682.66
2023-04-16T23:50:54.474Z,97679.59
2023-04-16T23:54:02.105Z,97669.44
2023-04-16T23:57:06.619Z,97667.31
